createdAt,value
2022-12-03T00:02:37.776Z,13.38
2022-12-03T00:05:48.212Z,11.52
2022-12-03T00:08:51.323Z,14.82
2022-12-03T00:11:55.171Z,13.25
2022-12-03T00:14:59.360Z,12.70
2022-12-03T00:18:01.730Z,14.02
2022-12-03T00:21:04.548Z,14.32
2022-12-03T00:24:07.866Z,14.07
2022-12-03T00:27:11.699Z,13.45
2022-12-03T00:30:14.693Z,11.73
2022-12-03T00:33:17.323Z,12.15
2022-12-03T00:36:20.348Z,12.38
2022-12-03T00:39:22.948Z,14.18
2022-12-03T00:42:27.075Z,14.40
2022-12-03T00:45:29.468Z,12.35
2022-12-03T00:48:32.760Z,13.60
2022-12-03T00:51:35.867Z,10.23
2022-12-03T00:54:38.456Z,13.57
2022-12-03T00:57:42.654Z,13.02
2022-12-03T01:00:45.114Z,11.48
2022-12-03T01:03:47.616Z,13.27
2022-12-03T01:06:49.984Z,13.10
2022-12-03T01:09:54.958Z,10.43
2022-12-03T01:12:58.991Z,15.65
2022-12-03T01:16:01.475Z,10.07
2022-12-03T01:19:05.256Z,11.65
2022-12-03T01:22:08.380Z,12.32
2022-12-03T01:25:11.111Z,13.88
2022-12-03T01:28:14.963Z,10.55
2022-12-03T01:31:35.913Z,13.45
2022-12-03T01:34:38.393Z,13.32
2022-12-03T01:37:40.884Z,13.50
2022-12-03T01:40:43.447Z,11.40
2022-12-03T01:43:48.305Z,13.80
2022-12-03T01:46:51.751Z,10.68
2022-12-03T01:49:56.737Z,11.38
2022-12-03T01:53:01.966Z,9.45
2022-12-03T01:56:04.489Z,11.38
2022-12-03T01:59:09.371Z,10.52
2022-12-03T02:02:13.757Z,10.48
2022-12-03T02:05:18.612Z,9.75
2022-12-03T02:08:28.825Z,11.73
2022-12-03T02:11:33.740Z,9.27
2022-12-03T02:14:37.550Z,9.98
2022-12-03T02:17:40.309Z,10.63
2022-12-03T02:20:49.544Z,11.20
2022-12-03T02:23:58.593Z,12.32
2022-12-03T02:27:02.547Z,11.55
2022-12-03T02:30:06.619Z,10.02
2022-12-03T02:33:09.125Z,11.35
2022-12-03T02:36:11.859Z,12.63
2022-12-03T02:39:14.333Z,10.15
2022-12-03T02:42:37.002Z,11.25
2022-12-03T02:45:41.575Z,10.70
2022-12-03T02:48:44.037Z,11.02
2022-12-03T02:51:46.531Z,10.75
2022-12-03T02:54:49.332Z,12.55
2022-12-03T02:57:53.538Z,12.50
2022-12-03T03:00:56.570Z,12.13
2022-12-03T03:04:00.762Z,10.55
2022-12-03T03:07:03.471Z,11.20
2022-12-03T03:10:08.730Z,14.85
2022-12-03T03:13:14.202Z,9.57
2022-12-03T03:16:16.917Z,12.32
2022-12-03T03:19:19.471Z,11.25
2022-12-03T03:22:32.179Z,10.40
2022-12-03T03:25:34.663Z,13.13
2022-12-03T03:28:40.128Z,15.52
2022-12-03T03:31:43.332Z,11.57
2022-12-03T03:34:45.910Z,9.80
2022-12-03T03:37:48.594Z,11.63
2022-12-03T03:40:51.690Z,11.55
2022-12-03T03:43:55.709Z,11.23
2022-12-03T03:46:58.142Z,13.02
2022-12-03T03:50:00.842Z,11.93
2022-12-03T03:53:04.417Z,11.18
2022-12-03T03:56:07.607Z,15.20
2022-12-03T03:59:12.938Z,14.38
2022-12-03T04:02:19.096Z,13.55
2022-12-03T04:05:23.082Z,14.68
2022-12-03T04:08:25.530Z,16.23
2022-12-03T04:11:46.884Z,13.20
2022-12-03T04:14:50.714Z,15.87
2022-12-03T04:18:12.001Z,13.23
2022-12-03T04:21:35.710Z,15.63
2022-12-03T04:24:38.377Z,14.57
2022-12-03T04:28:06.879Z,14.65
2022-12-03T04:31:36.924Z,14.18
2022-12-03T04:34:58.100Z,15.18
2022-12-03T04:38:01.530Z,15.88
2022-12-03T04:41:04.435Z,18.45
2022-12-03T04:44:25.415Z,16.05
2022-12-03T04:47:29.395Z,19.52
2022-12-03T04:50:31.972Z,18.20
2022-12-03T04:53:36.264Z,15.00
2022-12-03T04:56:38.913Z,14.68
2022-12-03T04:59:41.419Z,14.48
2022-12-03T05:02:45.323Z,15.25
2022-12-03T05:05:47.835Z,18.02
2022-12-03T05:08:50.488Z,14.95
2022-12-03T05:11:52.964Z,17.42
2022-12-03T05:14:55.859Z,16.13
2022-12-03T05:18:00.201Z,14.50
2022-12-03T05:21:02.832Z,17.77
2022-12-03T05:24:06.315Z,15.90
2022-12-03T05:27:08.771Z,14.13
2022-12-03T05:30:11.976Z,17.63
2022-12-03T05:33:15.933Z,15.68
2022-12-03T05:36:18.466Z,15.93
2022-12-03T05:39:20.845Z,18.98
2022-12-03T05:42:41.728Z,14.52
2022-12-03T05:45:44.826Z,14.18
2022-12-03T05:48:48.844Z,16.95
2022-12-03T05:51:58.049Z,14.00
2022-12-03T05:55:01.158Z,12.48
2022-12-03T05:58:05.106Z,14.88
2022-12-03T06:01:07.674Z,11.52
2022-12-03T06:04:11.726Z,11.88
2022-12-03T06:07:14.546Z,13.40
2022-12-03T06:10:19.126Z,14.18
2022-12-03T06:13:21.579Z,14.02
2022-12-03T06:16:24.206Z,12.45
2022-12-03T06:19:28.155Z,13.32
2022-12-03T06:22:30.970Z,12.23
2022-12-03T06:25:33.420Z,14.30
2022-12-03T06:28:36.052Z,15.07
2022-12-03T06:31:38.636Z,11.73
2022-12-03T06:34:42.677Z,14.07
2022-12-03T06:37:45.240Z,14.13
2022-12-03T06:40:47.805Z,15.15
2022-12-03T06:43:50.341Z,16.23
2022-12-03T06:46:52.931Z,17.15
2022-12-03T06:49:56.831Z,15.45
2022-12-03T06:52:59.721Z,19.67
2022-12-03T06:56:02.309Z,17.25
2022-12-03T06:59:04.891Z,16.35
2022-12-03T07:02:09.875Z,19.60
2022-12-03T07:05:13.990Z,14.60
2022-12-03T07:08:16.523Z,17.65
2022-12-03T07:11:40.114Z,19.75
2022-12-03T07:14:42.552Z,16.90
2022-12-03T07:17:45.007Z,16.85
2022-12-03T07:20:49.128Z,15.57
2022-12-03T07:23:51.615Z,12.95
2022-12-03T07:26:54.037Z,16.05
2022-12-03T07:29:56.626Z,18.05
2022-12-03T07:32:59.136Z,18.33
2022-12-03T07:36:03.031Z,18.30
2022-12-03T07:39:05.545Z,18.27
2022-12-03T07:42:09.614Z,14.55
2022-12-03T07:45:12.099Z,15.35
2022-12-03T07:48:14.790Z,15.20
2022-12-03T07:51:18.679Z,14.43
2022-12-03T07:54:21.567Z,15.57
2022-12-03T07:57:24.013Z,17.80
2022-12-03T08:00:29.056Z,16.05
2022-12-03T08:03:31.619Z,17.30
2022-12-03T08:06:35.530Z,17.83
2022-12-03T08:09:39.415Z,17.17
2022-12-03T08:12:41.925Z,16.02
2022-12-03T08:15:46.983Z,15.98
2022-12-03T08:18:49.923Z,15.32
2022-12-03T08:21:59.532Z,14.43
2022-12-03T08:25:06.598Z,15.10
2022-12-03T08:28:14.406Z,14.93
2022-12-03T08:31:20.176Z,14.65
2022-12-03T08:34:24.338Z,15.05
2022-12-03T08:37:29.556Z,13.98
2022-12-03T08:40:35.497Z,13.40
2022-12-03T08:43:42.850Z,16.63
2022-12-03T08:46:45.580Z,13.30
2022-12-03T08:49:52.174Z,16.38
2022-12-03T08:52:59.108Z,17.75
2022-12-03T08:56:03.625Z,15.90
2022-12-03T08:59:20.634Z,13.80
2022-12-03T09:02:29.361Z,14.30
2022-12-03T09:05:35.060Z,15.40
2022-12-03T09:08:38.945Z,11.32
2022-12-03T09:11:43.201Z,15.57
2022-12-03T09:14:45.687Z,14.88
2022-12-03T09:17:48.985Z,16.33
2022-12-03T09:20:51.574Z,13.45
2022-12-03T09:23:55.436Z,13.00
2022-12-03T09:26:57.992Z,13.45
2022-12-03T09:30:00.649Z,15.43
2022-12-03T09:33:03.338Z,15.07
2022-12-03T09:36:06.567Z,11.55
2022-12-03T09:39:13.017Z,14.13
2022-12-03T09:42:15.800Z,8.77
2022-12-03T09:45:18.522Z,13.52
2022-12-03T09:48:21.194Z,13.20
2022-12-03T09:51:25.041Z,11.75
2022-12-03T09:54:30.473Z,15.15
2022-12-03T09:57:36.852Z,14.52
2022-12-03T10:00:43.879Z,16.60
2022-12-03T10:03:49.738Z,15.38
2022-12-03T10:06:52.432Z,14.13
2022-12-03T10:09:56.735Z,13.48
2022-12-03T10:12:59.492Z,15.25
2022-12-03T10:16:01.974Z,14.82
2022-12-03T10:19:04.214Z,14.38
2022-12-03T10:22:06.657Z,12.98
2022-12-03T10:25:12.493Z,13.07
2022-12-03T10:28:27.431Z,14.93
2022-12-03T10:31:36.266Z,13.15
2022-12-03T10:34:40.662Z,12.93
2022-12-03T10:38:03.989Z,15.52
2022-12-03T10:41:24.277Z,11.85
2022-12-03T10:44:30.653Z,15.20
2022-12-03T10:47:35.540Z,11.48
2022-12-03T10:50:43.583Z,12.98
2022-12-03T10:53:46.044Z,13.43
2022-12-03T10:56:51.655Z,16.95
2022-12-03T10:59:54.590Z,15.10
2022-12-03T11:02:57.554Z,11.93
2022-12-03T11:06:00.937Z,12.15
2022-12-03T11:09:08.806Z,13.93
2022-12-03T11:12:19.577Z,13.23
2022-12-03T11:15:42.054Z,17.35
2022-12-03T11:19:03.666Z,16.00
2022-12-03T11:22:26.832Z,14.27
2022-12-03T11:25:50.742Z,13.55
2022-12-03T11:28:59.721Z,14.68
2022-12-03T11:32:02.306Z,16.02
2022-12-03T11:35:04.918Z,13.55
2022-12-03T11:38:50.705Z,16.50
2022-12-03T11:42:28.833Z,15.63
2022-12-03T11:45:35.278Z,20.48
2022-12-03T11:48:43.865Z,15.30
2022-12-03T11:51:47.077Z,16.67
2022-12-03T11:54:52.723Z,16.65
2022-12-03T12:18:10.747Z,16.98
2022-12-03T12:28:22.083Z,16.50
2022-12-03T12:32:51.805Z,20.30
2022-12-03T12:41:07.162Z,17.15
2022-12-03T12:44:10.356Z,19.25
2022-12-03T12:47:12.970Z,19.23
2022-12-03T12:50:17.938Z,18.75
2022-12-03T12:53:26.551Z,19.33
2022-12-03T12:56:31.207Z,21.17
2022-12-03T12:59:33.797Z,19.02
2022-12-03T13:02:42.435Z,20.88
2022-12-03T13:05:48.551Z,18.63
2022-12-03T13:08:51.210Z,18.85
2022-12-03T13:11:54.705Z,17.15
2022-12-03T13:14:58.919Z,17.38
2022-12-03T13:18:01.801Z,21.02
2022-12-03T13:21:13.711Z,19.17
2022-12-03T13:24:30.238Z,21.35
2022-12-03T13:27:35.254Z,22.60
2022-12-03T13:30:37.778Z,23.88
2022-12-03T13:33:40.318Z,23.27
2022-12-03T13:36:45.012Z,24.10
2022-12-03T13:39:48.793Z,18.40
2022-12-03T13:42:52.625Z,20.13
2022-12-03T13:45:55.296Z,22.55
2022-12-03T13:49:01.724Z,23.65
2022-12-03T13:52:11.356Z,17.65
2022-12-03T13:55:26.792Z,22.65
2022-12-03T13:58:29.261Z,24.80
2022-12-03T14:01:47.054Z,19.88
2022-12-03T14:04:49.665Z,22.77
2022-12-03T14:07:53.619Z,19.95
2022-12-03T14:11:00.370Z,20.77
2022-12-03T14:14:03.360Z,21.48
2022-12-03T14:17:06.600Z,20.05
2022-12-03T14:20:09.894Z,20.75
2022-12-03T14:23:13.775Z,24.75
2022-12-03T14:26:16.150Z,20.40
2022-12-03T14:29:18.671Z,22.40
2022-12-03T14:32:21.214Z,25.67
2022-12-03T14:35:23.671Z,26.02
2022-12-03T14:38:27.452Z,23.10
2022-12-03T14:41:48.731Z,23.25
2022-12-03T14:44:51.850Z,25.25
2022-12-03T14:47:54.340Z,25.45
2022-12-03T14:50:56.689Z,26.17
2022-12-03T14:54:00.506Z,25.40
2022-12-03T14:57:03.098Z,24.58
2022-12-03T15:00:07.020Z,23.48
2022-12-03T15:03:10.746Z,24.15
2022-12-03T15:06:13.298Z,23.90
2022-12-03T15:09:17.388Z,22.80
2022-12-03T15:12:19.940Z,23.95
2022-12-03T15:15:22.349Z,21.02
2022-12-03T15:18:27.296Z,25.30
2022-12-03T15:21:32.668Z,25.77
2022-12-03T15:24:36.554Z,23.55
2022-12-03T15:27:38.927Z,28.20
2022-12-03T15:30:41.415Z,30.15
2022-12-03T15:33:43.822Z,35.45
2022-12-03T15:36:46.370Z,22.58
2022-12-03T15:39:50.172Z,24.98
2022-12-03T15:42:52.647Z,29.90
2022-12-03T15:45:55.710Z,29.83
2022-12-03T15:48:58.304Z,25.55
2022-12-03T15:52:01.077Z,30.13
2022-12-03T15:55:05.400Z,25.70
2022-12-03T15:58:07.859Z,26.27
2022-12-03T16:01:11.032Z,26.10
2022-12-03T16:04:13.471Z,26.42
2022-12-03T16:07:15.839Z,26.05
2022-12-03T16:10:21.478Z,27.90
2022-12-03T16:13:23.987Z,24.15
2022-12-03T16:16:26.496Z,28.42
2022-12-03T16:19:29.004Z,31.73
2022-12-03T16:22:31.495Z,31.58
2022-12-03T16:25:36.379Z,27.13
2022-12-03T16:28:38.901Z,22.50
2022-12-03T16:31:41.464Z,29.27
2022-12-03T16:34:44.103Z,28.52
2022-12-03T16:37:47.466Z,27.80
2022-12-03T16:40:51.825Z,25.50
2022-12-03T16:43:54.377Z,29.60
2022-12-03T16:46:56.881Z,28.52
2022-12-03T16:49:59.352Z,28.95
2022-12-03T16:53:01.785Z,29.02
2022-12-03T16:56:05.920Z,28.38
2022-12-03T16:59:08.363Z,31.58
2022-12-03T17:02:11.247Z,32.13
2022-12-03T17:05:13.830Z,22.20
2022-12-03T17:08:17.031Z,35.03
2022-12-03T17:11:21.009Z,25.85
2022-12-03T17:14:25.383Z,24.45
2022-12-03T17:17:31.042Z,32.15
2022-12-03T17:20:34.072Z,23.08
2022-12-03T17:23:36.497Z,28.25
2022-12-03T17:26:42.050Z,28.67
2022-12-03T17:29:44.512Z,22.77
2022-12-03T17:32:46.982Z,22.80
2022-12-03T17:35:49.373Z,24.35
2022-12-03T17:38:52.020Z,24.42
2022-12-03T17:41:55.798Z,24.27
2022-12-03T17:44:58.336Z,22.20
2022-12-03T17:48:00.797Z,26.25
2022-12-03T17:51:04.326Z,23.08
2022-12-03T17:54:07.263Z,22.35
2022-12-03T17:57:11.127Z,24.98
2022-12-03T18:00:14.110Z,22.73
2022-12-03T18:03:17.453Z,22.75
2022-12-03T18:06:19.861Z,25.58
2022-12-03T18:09:22.589Z,23.17
2022-12-03T18:12:26.409Z,21.52
2022-12-03T18:15:28.927Z,26.90
2022-12-03T18:18:31.350Z,24.63
2022-12-03T18:21:34.077Z,28.63
2022-12-03T18:24:36.698Z,27.67
2022-12-03T18:27:40.550Z,24.63
2022-12-03T18:30:50.664Z,24.38
2022-12-03T18:33:54.766Z,13.18
2022-12-03T18:36:57.433Z,22.42
2022-12-03T18:40:00.562Z,19.85
2022-12-03T18:43:06.393Z,19.60
2022-12-03T18:46:31.163Z,22.85
2022-12-03T18:49:33.864Z,23.02
2022-12-03T18:52:36.274Z,18.48
2022-12-03T18:55:38.707Z,21.55
2022-12-03T18:58:42.649Z,21.10
2022-12-03T19:01:45.083Z,21.05
2022-12-03T19:04:47.707Z,20.48
2022-12-03T19:07:51.557Z,18.60
2022-12-03T19:10:59.132Z,20.73
2022-12-03T19:14:05.658Z,20.77
2022-12-03T19:17:09.498Z,18.58
2022-12-03T19:20:12.746Z,19.13
2022-12-03T19:23:15.053Z,24.58
2022-12-03T19:26:17.359Z,21.20
2022-12-03T19:29:21.478Z,24.77
2022-12-03T19:32:23.907Z,22.10
2022-12-03T19:35:26.297Z,20.10
2022-12-03T19:38:29.485Z,25.52
2022-12-03T19:41:31.802Z,18.65
2022-12-03T19:44:35.708Z,24.20
2022-12-03T19:47:38.143Z,20.08
2022-12-03T19:50:48.148Z,21.00
2022-12-03T19:53:50.488Z,23.23
2022-12-03T19:56:52.890Z,17.98
2022-12-03T19:59:56.840Z,19.60
2022-12-03T20:02:59.728Z,17.77
2022-12-03T20:06:02.447Z,20.25
2022-12-03T20:09:07.624Z,18.70
2022-12-03T20:12:09.895Z,22.10
2022-12-03T20:15:14.017Z,24.65
2022-12-03T20:18:16.314Z,18.85
2022-12-03T20:21:19.502Z,22.20
2022-12-03T20:24:21.884Z,24.40
2022-12-03T20:27:24.150Z,21.27
2022-12-03T20:30:27.783Z,20.33
2022-12-03T20:33:30.222Z,21.92
2022-12-03T20:36:33.039Z,26.45
2022-12-03T20:39:35.308Z,24.70
2022-12-03T20:42:37.610Z,20.08
2022-12-03T20:45:41.420Z,21.38
2022-12-03T20:48:44.509Z,20.63
2022-12-03T20:51:49.559Z,18.60
2022-12-03T20:54:51.978Z,18.92
2022-12-03T20:57:54.292Z,23.35
2022-12-03T21:01:12.545Z,20.67
2022-12-03T21:04:18.070Z,24.57
2022-12-03T21:07:20.359Z,20.02
2022-12-03T21:10:44.680Z,23.05
2022-12-03T21:13:48.051Z,26.23
2022-12-03T21:17:07.825Z,26.13
2022-12-03T21:20:12.381Z,25.98
2022-12-03T21:23:17.052Z,25.65
2022-12-03T21:26:21.634Z,23.45
2022-12-03T21:29:24.128Z,25.88
2022-12-03T21:32:27.776Z,24.63
2022-12-03T21:35:30.123Z,26.30
2022-12-03T21:38:33.169Z,29.10
2022-12-03T21:41:35.676Z,24.00
2022-12-03T21:44:38.465Z,25.45
2022-12-03T21:47:42.260Z,25.08
2022-12-03T21:50:45.445Z,25.35
2022-12-03T21:53:47.951Z,24.23
2022-12-03T21:56:50.587Z,24.92
2022-12-03T21:59:53.518Z,27.45
2022-12-03T22:02:57.527Z,26.58
2022-12-03T22:05:59.896Z,28.60
2022-12-03T22:09:02.155Z,27.85
2022-12-03T22:12:05.017Z,28.23
2022-12-03T22:15:11.045Z,28.48
2022-12-03T22:18:17.067Z,25.08
2022-12-03T22:21:20.267Z,31.05
2022-12-03T22:24:23.792Z,28.98
2022-12-03T22:27:26.210Z,28.15
2022-12-03T22:30:28.644Z,25.73
2022-12-03T22:33:32.443Z,24.50
2022-12-03T22:36:34.880Z,29.58
2022-12-03T22:39:37.290Z,25.20
2022-12-03T22:42:39.797Z,27.70
2022-12-03T22:45:42.123Z,25.67
2022-12-03T22:48:47.455Z,22.98
2022-12-03T22:51:50.141Z,25.88
2022-12-03T22:54:52.468Z,30.88
2022-12-03T22:57:54.999Z,30.02
2022-12-03T23:01:02.647Z,29.98
2022-12-03T23:04:08.154Z,27.35
2022-12-03T23:07:10.743Z,32.25
2022-12-03T23:10:13.017Z,27.98
2022-12-03T23:13:16.426Z,35.25
2022-12-03T23:16:20.281Z,30.92
2022-12-03T23:19:24.405Z,34.42
2022-12-03T23:22:27.047Z,30.73
2022-12-03T23:25:30.034Z,31.08
2022-12-03T23:28:34.281Z,29.15
2022-12-03T23:31:36.642Z,30.40
2022-12-03T23:34:40.494Z,32.10
2022-12-03T23:37:43.745Z,28.42
2022-12-03T23:40:48.297Z,30.95
2022-12-03T23:43:50.992Z,24.08
2022-12-03T23:46:53.404Z,27.70
2022-12-03T23:49:57.239Z,30.90
2022-12-03T23:52:59.727Z,28.38
2022-12-03T23:56:05.126Z,31.60
2022-12-03T23:59:07.475Z,28.88
